Terminal Aerodrome Forecast
Issued by NWS

Home | Current Version | Previous Version | Text Only | Print | Product List | Glossary On
Versions: 1 2 3 4 5 6 7 8 9 10 11 12 13 14 15 16 17
000
FTUS41 KGYX 261120
TAFHIE
TAF
KHIE 261120Z 2612/2712 00000KT P6SM BKN025 OVC050
     FM261800 32005KT P6SM -SHRA SCT030 BKN050
      TEMPO 2618/2622 4SM -SHSN BKN025
     FM270000 00000KT P6SM BKN025 OVC050=

USA.gov is the U.S. government's official web portal to all federal, state and local government web resources and services.